createdAt,value
2019-02-09T00:00:00.622Z,6.10
2019-02-09T00:05:04.988Z,6.10
2019-02-09T00:10:09.180Z,6.10
2019-02-09T00:15:12.969Z,6.00
2019-02-09T00:20:16.904Z,6.00
2019-02-09T00:25:20.668Z,6.00
2019-02-09T00:30:27.865Z,6.00
2019-02-09T00:35:31.773Z,6.10
2019-02-09T00:40:35.513Z,6.10
2019-02-09T00:45:39.209Z,6.10
2019-02-09T00:50:42.888Z,6.10
2019-02-09T00:55:46.633Z,6.10
2019-02-09T01:00:50.383Z,6.10
2019-02-09T01:05:54.680Z,6.00
2019-02-09T01:10:59.259Z,5.90
2019-02-09T01:16:03.016Z,5.80
2019-02-09T01:21:06.770Z,5.80
2019-02-09T01:26:10.592Z,5.70
2019-02-09T01:31:14.285Z,5.70
2019-02-09T01:36:18.272Z,5.60
2019-02-09T01:41:22.608Z,5.60
2019-02-09T01:46:26.418Z,5.50
2019-02-09T01:51:30.110Z,5.50
2019-02-09T01:56:33.813Z,5.40
2019-02-09T02:01:37.656Z,5.40
2019-02-09T02:06:41.631Z,5.40
2019-02-09T02:11:45.335Z,5.40
2019-02-09T02:16:49.028Z,5.40
2019-02-09T02:21:52.825Z,5.50
2019-02-09T02:26:56.616Z,5.60
2019-02-09T02:32:00.658Z,5.60
2019-02-09T02:37:04.435Z,5.70
2019-02-09T02:42:08.441Z,5.60
2019-02-09T02:47:12.121Z,5.50
2019-02-09T02:52:16.618Z,5.40
2019-02-09T02:57:20.351Z,5.30
2019-02-09T03:02:24.100Z,5.20
2019-02-09T03:07:28.044Z,5.20
2019-02-09T03:12:31.740Z,5.00
2019-02-09T03:17:35.448Z,5.00
2019-02-09T03:22:39.400Z,5.00
2019-02-09T03:27:43.103Z,4.90
2019-02-09T03:32:46.951Z,4.80
2019-02-09T03:37:50.755Z,4.80
2019-02-09T03:42:54.688Z,4.70
2019-02-09T03:47:59.310Z,4.60
2019-02-09T03:53:03.153Z,4.70
2019-02-09T03:58:07.753Z,4.70
2019-02-09T04:03:11.564Z,4.60
2019-02-09T04:08:15.577Z,4.60
2019-02-09T04:13:19.304Z,4.40
2019-02-09T04:18:23.084Z,4.50
2019-02-09T04:23:26.785Z,4.50
2019-02-09T04:28:30.452Z,4.50
2019-02-09T04:33:34.103Z,4.60
2019-02-09T04:38:37.771Z,4.60
2019-02-09T04:43:41.436Z,4.70
2019-02-09T04:48:45.108Z,4.80
2019-02-09T04:53:48.778Z,4.90
2019-02-09T04:58:52.452Z,5.00
2019-02-09T05:03:56.191Z,5.10
2019-02-09T05:08:59.847Z,5.30
2019-02-09T05:14:03.586Z,5.30
2019-02-09T05:19:07.251Z,5.40
2019-02-09T05:24:10.921Z,5.40
2019-02-09T05:29:14.902Z,5.40
2019-02-09T05:34:18.619Z,5.40
2019-02-09T05:39:22.307Z,5.30
2019-02-09T05:44:25.970Z,5.20
2019-02-09T05:49:29.709Z,5.20
2019-02-09T05:54:33.406Z,5.20
2019-02-09T05:59:37.077Z,5.20
2019-02-09T06:04:41.048Z,5.30
2019-02-09T06:09:44.712Z,5.30
2019-02-09T06:14:48.693Z,5.30
2019-02-09T06:19:52.462Z,5.30
2019-02-09T06:24:56.143Z,5.30
2019-02-09T06:29:59.842Z,5.30
2019-02-09T06:35:03.977Z,5.40
2019-02-09T06:40:08.799Z,5.50
2019-02-09T06:45:15.322Z,5.50
2019-02-09T06:50:29.883Z,5.50
2019-02-09T06:55:33.603Z,5.50
2019-02-09T07:00:37.271Z,5.50
2019-02-09T07:05:41.034Z,5.50
2019-02-09T07:10:44.798Z,5.60
2019-02-09T07:15:48.606Z,5.60
2019-02-09T07:20:52.405Z,5.70
2019-02-09T07:25:56.176Z,5.70
2019-02-09T07:30:59.988Z,5.70
2019-02-09T07:36:03.973Z,5.90
2019-02-09T07:41:07.712Z,6.00
2019-02-09T07:46:11.393Z,6.10
2019-02-09T07:51:15.066Z,6.20
2019-02-09T07:56:19.063Z,6.30
2019-02-09T08:01:22.959Z,6.40
2019-02-09T08:06:26.753Z,6.50
2019-02-09T08:11:30.799Z,6.50
2019-02-09T08:16:34.820Z,6.60
2019-02-09T08:21:38.569Z,6.60
2019-02-09T08:26:42.352Z,6.60
2019-02-09T08:31:46.433Z,6.80
2019-02-09T08:36:50.466Z,6.80
2019-02-09T08:41:54.135Z,7.20
2019-02-09T08:46:57.813Z,7.60
2019-02-09T08:52:01.556Z,7.90
2019-02-09T08:57:05.319Z,7.80
2019-02-09T09:02:09.090Z,7.90
2019-02-09T09:07:12.838Z,9.40
2019-02-09T09:12:16.535Z,11.50
2019-02-09T09:17:20.461Z,12.80
2019-02-09T09:22:24.371Z,15.70
2019-02-09T09:27:28.139Z,19.40
2019-02-09T09:32:31.841Z,21.80
2019-02-09T09:37:35.670Z,22.10
2019-02-09T09:42:39.585Z,22.10
2019-02-09T09:47:43.522Z,21.60
2019-02-09T09:52:47.359Z,23.00
2019-02-09T09:57:51.612Z,24.80
2019-02-09T10:02:55.481Z,24.50
2019-02-09T10:07:59.652Z,25.90
2019-02-09T10:13:03.704Z,26.00
2019-02-09T10:18:07.535Z,26.60
2019-02-09T10:23:17.291Z,25.20
2019-02-09T10:28:24.232Z,25.50
2019-02-09T10:33:30.920Z,23.10
2019-02-09T10:38:34.606Z,23.70
2019-02-09T10:43:38.879Z,23.30
2019-02-09T10:48:42.770Z,23.00
2019-02-09T10:53:46.793Z,22.70
2019-02-09T10:58:50.556Z,22.40
2019-02-09T11:03:54.480Z,21.10
2019-02-09T11:08:58.232Z,22.40
2019-02-09T11:14:02.195Z,21.50
2019-02-09T11:19:05.983Z,21.70
2019-02-09T11:24:10.038Z,20.00
2019-02-09T11:29:13.859Z,20.10
2019-02-09T11:34:17.665Z,21.40
2019-02-09T11:39:21.814Z,21.20
2019-02-09T11:44:25.815Z,22.90
2019-02-09T11:49:29.586Z,23.00
2019-02-09T11:54:33.313Z,22.70
2019-02-09T11:59:37.097Z,23.30
2019-02-09T12:04:41.677Z,24.00
2019-02-09T12:09:48.611Z,22.50
2019-02-09T12:14:52.324Z,23.50
2019-02-09T12:19:57.571Z,22.30
2019-02-09T12:25:01.686Z,19.80
2019-02-09T12:30:07.480Z,18.30
2019-02-09T12:35:12.145Z,17.60
2019-02-09T12:40:21.006Z,16.40
2019-02-09T12:45:25.224Z,15.50
2019-02-09T18:25:51.382Z,9.10
2019-02-09T18:30:55.213Z,9.10
2019-02-09T18:35:59.161Z,9.00
2019-02-09T18:41:02.943Z,8.90
2019-02-09T18:46:07.054Z,8.90
2019-02-09T18:51:10.744Z,8.80
2019-02-09T18:56:14.491Z,8.90
2019-02-09T19:01:18.519Z,8.80
2019-02-09T19:06:22.497Z,8.80
2019-02-09T19:11:27.001Z,8.60
2019-02-09T19:16:30.784Z,8.60
2019-02-09T19:21:34.915Z,8.60
2019-02-09T19:26:38.701Z,8.40
2019-02-09T19:31:42.375Z,8.40
2019-02-09T19:36:46.136Z,8.30
2019-02-09T19:41:50.256Z,8.20
2019-02-09T19:46:53.996Z,8.20
2019-02-09T19:51:58.100Z,8.10
2019-02-09T19:57:02.051Z,8.10
2019-02-09T20:02:05.884Z,8.10
2019-02-09T20:07:10.027Z,8.20
2019-02-09T20:12:13.845Z,8.20
2019-02-09T20:17:17.714Z,8.20
2019-02-09T20:22:21.461Z,8.00
2019-02-09T20:27:25.456Z,8.20
2019-02-09T20:32:29.247Z,8.20
2019-02-09T20:37:36.058Z,8.30
2019-02-09T20:42:39.835Z,8.40
2019-02-09T20:47:49.590Z,8.30
2019-02-09T20:52:49.314Z,8.30
2019-02-09T20:57:53.086Z,8.40
2019-02-09T21:02:57.196Z,8.20
2019-02-09T21:08:01.053Z,8.00
2019-02-09T21:13:06.088Z,7.80
2019-02-09T21:18:10.220Z,8.00
2019-02-09T21:23:14.016Z,8.10
2019-02-09T21:28:17.913Z,8.10
2019-02-09T21:33:21.738Z,7.90
2019-02-09T21:38:25.621Z,7.80
2019-02-09T21:43:29.996Z,7.80
2019-02-09T21:48:33.761Z,7.80
2019-02-09T21:53:37.436Z,7.60
2019-02-09T21:58:41.365Z,7.60
2019-02-09T22:03:45.052Z,7.70
2019-02-09T22:08:48.817Z,7.60
2019-02-09T22:13:52.539Z,7.60
2019-02-09T22:18:56.347Z,7.50
2019-02-09T22:24:00.476Z,7.30
2019-02-09T22:29:04.365Z,7.30
2019-02-09T22:34:08.308Z,7.20
2019-02-09T22:39:12.079Z,7.10
2019-02-09T22:44:15.790Z,7.10
2019-02-09T22:49:19.464Z,7.00
2019-02-09T22:54:23.164Z,7.10
2019-02-09T22:59:26.984Z,7.10
2019-02-09T23:05:12.355Z,6.90
2019-02-09T23:10:16.357Z,6.90
2019-02-09T23:15:20.061Z,6.90
2019-02-09T23:20:23.774Z,6.90
2019-02-09T23:25:27.701Z,6.80
2019-02-09T23:30:31.432Z,6.70
2019-02-09T23:35:35.159Z,6.60
2019-02-09T23:40:38.875Z,6.60
2019-02-09T23:45:42.552Z,6.60
2019-02-09T23:50:46.248Z,6.40
2019-02-09T23:55:50.031Z,6.50
